• Join FlightAware (Why Join?)
  • Login
  • US Flag 
05:10PM EDT


 

Airport Tracker/Info


-or-


 

Live Flight TrackerFlight Track Log ✈ UAL1177 ✈ 20-May-2013 ✈ KDEN - KPDX

Flight Track Log - Related Links

Times and Time Zones

All times are in EDT time to prevent confusion due to time zone crossing. See the UAL1177 flight status page for this flight to view local times or setup timezone preferences in your user account.

Time Position Orientation Groundspeed Altitude Reporting Facility
EDT Latitude Longitude Course Direction KTS MPH feet Rate Location/Type
10:02PM 39.8998 -104.6870 360° North 195 224 5,700  Level FlightAware ADS-B
10:02PM 39.9070 -104.6870 360° North 192 221 6,200 3,480 Climbing FlightAware ADS-B
10:02PM 39.9146 -104.6860 North 187 215 6,700 2,400 Climbing FlightAware ADS-B
10:02PM 39.9288 -104.6860 360° North 201 231 7,200 1,800 Climbing FlightAware ADS-B
10:02PM 39.9323 -104.6860 360° North 205 236 7,300 1,500 Climbing FlightAware ADS-B
10:02PM 39.9369 -104.6860 360° North 211 243 7,400 1,500 Climbing FlightAware ADS-B
10:02PM 39.9401 -104.6870 347° North 215 247 7,500 1,980 Climbing FlightAware ADS-B
10:02PM 39.9449 -104.6890 342° North 220 253 7,700 2,640 Climbing FlightAware ADS-B
10:03PM 39.9487 -104.6910 338° Northwest 220 253 7,900 3,120 Climbing FlightAware ADS-B
10:03PM 39.9652 -104.6980 342° North 220 253 8,800 3,000 Climbing FlightAware ADS-B
10:03PM 39.9791 -104.7040 342° North 237 273 9,400 2,220 Climbing FlightAware ADS-B
10:03PM 39.9955 -104.7110 342° North 249 287 9,900 1,140 Climbing FlightAware ADS-B
10:04PM 40.0328 -104.7260 343° North 296 341 10,300 1,320 Climbing FlightAware ADS-B
10:04PM 40.0705 -104.7420 342° North 315 362 11,200 2,340 Climbing FlightAware ADS-B
10:05PM 40.1052 -104.7580 341° North 321 369 12,400 2,700 Climbing FlightAware ADS-B
10:05PM 40.1413 -104.7750 340° North 327 376 13,500 2,400 Climbing FlightAware ADS-B
10:06PM 40.1902 -104.7990 339° North 340 391 14,800 2,400 Climbing FlightAware ADS-B
10:06PM 40.2361 -104.8200 341° North 344 396 16,100 2,160 Climbing FlightAware ADS-B
10:07PM 40.2910 -104.8450 341° North 357 411 17,300 1,680 Climbing FlightAware
10:07PM 40.3129 -104.8550 341° North 371 427 17,500 780 Climbing FlightAware ADS-B
10:08PM 40.3653 -104.8800 340° North 398 458 17,900 1,320 Climbing FlightAware ADS-B
10:08PM 40.4211 -104.9060 340° North 408 470 18,900 1,740 Climbing FlightAware ADS-B
10:09PM 40.4760 -104.9320 340° North 419 482 19,700 1,680 Climbing FlightAware ADS-B
10:09PM 40.5319 -104.9580 341° North 426 490 20,600 1,680 Climbing FlightAware ADS-B
10:10PM 40.5884 -104.9850 340° North 434 499 21,400 1,680 Climbing FlightAware ADS-B
10:10PM 40.6700 -105.0230 341° North 439 505 22,700 1,080 Climbing FlightAware
10:11PM 40.7524 -105.0660 338° Northwest 439 505 23,000 360 Climbing FlightAware ADS-B
10:11PM 40.7623 -105.0730 332° Northwest 437 503 23,000  Level FlightAware ADS-B
10:11PM 40.7779 -105.0860 328° Northwest 437 503 23,000 480 Level FlightAware ADS-B
10:12PM 40.8027 -105.1110 323° Northwest 441 507 23,200 1,260 Climbing FlightAware ADS-B
10:12PM 40.8640 -105.1800 320° Northwest 445 512 24,200 1,200 Climbing FlightAware ADS-B
10:13PM 40.9540 -105.2810 320° Northwest 460 529 25,200 1,080 Climbing FlightAware
10:14PM 41.0030 -105.3370 319° Northwest 465 535 25,800 1,440 Climbing FlightAware
10:14PM 41.0640 -105.4070 319° Northwest 460 529 26,900 1,560 Climbing FlightAware
10:15PM 41.1290 -105.4810 319° Northwest 458 527 27,900 1,320 Climbing FlightAware
10:16PM 41.1940 -105.5560 319° Northwest 463 533 28,700 1,260 Climbing FlightAware
10:16PM 41.2680 -105.6410 319° Northwest 462 532 29,700 1,200 Climbing FlightAware
10:17PM 41.3300 -105.7220 316° Northwest 465 535 30,400 1,020 Climbing FlightAware
10:18PM 41.3670 -105.8360 293° West 468 539 31,200 1,260 Climbing FlightAware
10:18PM 41.3950 -105.9450 289° West 462 532 32,200 1,440 Climbing FlightAware
10:19PM 41.4260 -106.0650 289° West 454 522 33,300 1,320 Climbing FlightAware
10:20PM 41.4520 -106.1700 288° West 449 517 34,100 780 Climbing FlightAware
10:21PM 41.4760 -106.2680 288° West 448 516 34,400 180 Climbing FlightAware
10:21PM 41.4980 -106.3580 288° West 448 516 34,400  Level FlightAware
10:22PM 41.5200 -106.4470 288° West 448 516 34,400  Level FlightAware
10:23PM 41.5470 -106.5590 288° West 448 516 34,400  Level FlightAware
10:23PM 41.5690 -106.6490 288° West 448 516 34,400  Level FlightAware
10:24PM 41.5910 -106.7380 288° West 448 516 34,400  Level FlightAware
10:25PM 41.6130 -106.8280 288° West 448 516 34,400  Level FlightAware
10:25PM 41.6340 -106.9180 287° West 448 516 34,400  Level FlightAware
10:26PM 41.6560 -107.0070 288° West 448 516 34,400  Level FlightAware
10:27PM 41.6830 -107.1190 288° West 448 516 34,400  Level FlightAware
10:28PM 41.7050 -107.2090 288° West 448 516 34,400  Level FlightAware
10:28PM 41.7270 -107.2990 288° West 448 516 34,400  Level FlightAware
10:29PM 41.7490 -107.3890 288° West 448 516 34,400  Level FlightAware
10:30PM 41.7700 -107.4790 287° West 448 516 34,400 1,200 Level FlightAware
10:30PM 41.8489 -107.7969 287° West 455 524 36,000 1,800 Climbing Salt Lake Center
10:30PM 41.8617 -107.8472 289° West 456 525 36,000  Level Denver Center
10:31PM 41.8908 -107.9772 287° West 455 524 36,000  Level Salt Lake Center
10:32PM 41.9281 -108.1350 288° West 463 533 36,000  Level Salt Lake Center
10:33PM 41.9717 -108.3203 288° West 467 537 36,000  Level Salt Lake Center
10:34PM 42.0078 -108.4778 287° West 464 534 36,000  Level Salt Lake Center
10:35PM 42.0431 -108.6364 287° West 465 535 36,000  Level Salt Lake Center
10:36PM 42.0847 -108.8206 287° West 465 535 36,000  Level Salt Lake Center
10:37PM 42.1203 -108.9792 287° West 465 535 36,000  Level Salt Lake Center
10:38PM 42.1606 -109.1642 286° West 465 535 36,000  Level Salt Lake Center
10:39PM 42.1942 -109.3231 286° West 464 534 36,000  Level Salt Lake Center
10:40PM 42.2347 -109.5072 287° West 462 532 36,000  Level Salt Lake Center
10:41PM 42.2681 -109.6625 286° West 455 524 36,000  Level Salt Lake Center
10:42PM 42.3014 -109.8161 286° West 450 518 36,000  Level Salt Lake Center
10:43PM 42.3397 -109.9958 286° West 447 514 36,000  Level Salt Lake Center
10:44PM 42.3722 -110.1494 286° West 446 513 36,000  Level Salt Lake Center
10:46PM 42.4106 -110.3286 286° West 446 513 36,000  Level Salt Lake Center
10:47PM 42.4419 -110.4833 285° West 447 514 36,000  Level Salt Lake Center
10:48PM 42.4803 -110.6625 286° West 446 513 36,000  Level Salt Lake Center
10:49PM 42.5117 -110.8192 285° West 451 519 36,000  Level Salt Lake Center
10:50PM 42.5439 -110.9806 285° West 447 514 36,000  Level Salt Lake Center
10:51PM 42.5769 -111.1431 285° West 449 517 36,000  Level Salt Lake Center
10:52PM 42.6103 -111.3058 286° West 450 518 36,000  Level Salt Lake Center
10:53PM 42.6425 -111.4686 285° West 449 517 36,000  Level Salt Lake Center
10:54PM 42.6803 -111.6622 285° West 445 512 36,000  Level Salt Lake Center
10:55PM 42.7125 -111.8281 285° West 442 509 36,000  Level Salt Lake Center
10:56PM 42.7431 -111.9794 285° West 436 502 36,000  Level Salt Lake Center
10:57PM 42.7722 -112.1281 285° West 429 494 36,000  Level Salt Lake Center
10:58PM 42.8056 -112.3061 284° West 432 497 36,000  Level Salt Lake Center
10:59PM 42.8342 -112.4611 284° West 437 503 36,000  Level Salt Lake Center
11:00PM 42.8628 -112.6128 284° West 433 498 36,000  Level Salt Lake Center
11:01PM 42.9083 -112.7842 290° West 431 496 36,000  Level Salt Lake Center
11:02PM 42.9511 -112.9297 292° West 434 499 36,000  Level Salt Lake Center
11:03PM 42.9967 -113.0919 291° West 414 476 36,000  Level Salt Lake Center
11:04PM 43.0411 -113.2236 295° West 402 463 36,000  Level Salt Lake Center
11:05PM 43.0864 -113.3525 296° West 396 456 36,000  Level Salt Lake Center
11:06PM 43.1403 -113.5069 296° West 400 460 36,000  Level Salt Lake Center
11:07PM 43.1856 -113.6419 295° West 405 466 36,000  Level Salt Lake Center
11:08PM 43.2389 -113.7989 295° West 407 468 36,000  Level Salt Lake Center
11:09PM 43.2869 -113.9417 295° West 428 493 36,000  Level Salt Lake Center
11:10PM 43.3331 -114.0794 295° West 416 479 36,000  Level Salt Lake Center
11:11PM 43.3875 -114.2419 295° West 419 482 36,000  Level Salt Lake Center
11:12PM 43.4342 -114.3819 295° West 420 483 36,000  Level Salt Lake Center
11:13PM 43.4800 -114.5214 294° West 418 481 36,000  Level Salt Lake Center
11:14PM 43.5347 -114.6828 295° West 416 479 36,000  Level Salt Lake Center
11:15PM 43.5794 -114.8233 294° West 418 481 36,000 60 Level Salt Lake Center
11:16PM 43.6339 -114.9861 295° West 418 481 36,200 480 Climbing Salt Lake Center
11:17PM 43.6781 -115.1247 294° West 412 474 37,000 360 Climbing Salt Lake Center
11:18PM 43.7225 -115.2625 294° West 409 471 37,000  Level Salt Lake Center
11:19PM 43.7756 -115.4253 294° West 414 476 37,000  Level Salt Lake Center
11:20PM 43.8200 -115.5661 294° West 415 478 37,000  Level Salt Lake Center
11:21PM 43.8644 -115.7053 294° West 411 473 37,000  Level Salt Lake Center
11:22PM 43.9169 -115.8714 294° West 418 481 37,000  Level Salt Lake Center
11:23PM 43.9606 -116.0119 293° West 414 476 37,000  Level Salt Lake Center
11:24PM 44.0042 -116.1525 293° West 411 473 37,000  Level Salt Lake Center
11:25PM 44.0556 -116.3175 293° West 413 475 37,000  Level Salt Lake Center
11:26PM 44.1000 -116.4589 294° West 413 475 37,000  Level Salt Lake Center
11:27PM 44.1428 -116.6006 293° West 413 475 37,000  Level Salt Lake Center
11:28PM 44.1928 -116.7639 293° West 408 470 37,000  Level Salt Lake Center
11:29PM 44.2356 -116.9039 293° West 408 470 37,000  Level Salt Lake Center
11:30PM 44.2778 -117.0456 293° West 411 473 37,000  Level Salt Lake Center
11:31PM 44.3269 -117.2097 293° West 409 471 37,000  Level Salt Lake Center
11:32PM 44.3683 -117.3517 292° West 410 472 37,000  Level Salt Lake Center
11:34PM 44.4175 -117.5142 293° West 404 465 37,000 -300 Level Salt Lake Center
11:35PM 44.4592 -117.6569 292° West 411 473 36,500 -480 Descending Salt Lake Center
11:36PM 44.5086 -117.8250 292° West 415 478 36,000 -240 Descending Seattle Center
11:37PM 44.5500 -117.9678 292° West 414 476 36,000  Level Seattle Center
11:38PM 44.5917 -118.1111 292° West 414 476 36,000  Level Seattle Center
11:39PM 44.6358 -118.2628 292° West 414 476 36,000  Level Salt Lake Center
11:40PM 44.6775 -118.4111 292° West 411 473 36,000  Level Salt Lake Center
11:41PM 44.7206 -118.5611 292° West 414 476 36,000  Level Salt Lake Center
11:42PM 44.7631 -118.7122 292° West 416 479 36,000  Level Salt Lake Center
11:43PM 44.8058 -118.8628 292° West 417 480 36,000  Level Salt Lake Center
11:44PM 44.8489 -119.0139 292° West 420 483 36,000  Level Seattle Center
11:45PM 44.8914 -119.1678 291° West 422 486 36,000  Level Seattle Center
11:46PM 44.9406 -119.3514 291° West 419 482 36,000 -120 Level Seattle Center
11:51PM 45.1630 -120.1780 291° West 418 481 35,500 -240 Descending FlightAware
11:52PM 45.1880 -120.2730 291° West 418 481 34,900 -480 Descending FlightAware
11:52PM 45.2150 -120.3760 290° West 418 481 34,900  Level FlightAware
11:53PM 45.2370 -120.4640 290° West 418 481 34,900  Level FlightAware
11:54PM 45.2650 -120.5740 290° West 418 481 34,900  Level FlightAware
11:55PM 45.2880 -120.6610 291° West 418 481 34,900  Level FlightAware
11:55PM 45.3100 -120.7490 290° West 418 481 34,900  Level FlightAware
11:56PM 45.3330 -120.8370 290° West 418 481 34,900  Level FlightAware
11:57PM 45.3550 -120.9250 290° West 418 481 34,900  Level FlightAware
11:57PM 45.3830 -121.0350 290° West 418 481 34,900  Level FlightAware
11:58PM 45.4060 -121.1230 290° West 418 481 34,900  Level FlightAware
11:59PM 45.4280 -121.2110 290° West 418 481 34,900  Level FlightAware
11:59PM 45.4510 -121.2990 290° West 418 481 34,900  Level FlightAware
12:00AM 45.4730 -121.3870 290° West 418 481 34,900  Level FlightAware
12:01AM 45.4960 -121.4750 290° West 418 481 34,900  Level FlightAware
12:02AM 45.5240 -121.5860 290° West 418 481 34,900 -21,180 Level FlightAware
12:02AM 45.4908 -121.7311 290° West 312 359 10,900 -21,600 Descending Seattle Center
12:03AM 45.4981 -121.8347 276° West 275 316 9,400 -1,740 Descending Seattle Center
12:04AM 45.5003 -121.9389 272° West 269 310 7,700 -1,200 Descending Seattle Center
12:05AM 45.5031 -122.0458 272° West 247 284 7,000 -900 Descending Seattle Center
12:06AM 45.5050 -122.1192 272° West 210 242 6,000 -840 Descending Seattle Center
12:07AM 45.5078 -122.1953 273° West 215 247 5,500 -1,020 Descending Seattle Center
12:07AM 45.5097 -122.2256 275° West 216 249 4,800 -1,500 Descending Seattle Center
12:08AM 45.5081 -122.2814 268° West 219 252 4,000 -1,320 Descending Seattle Center
12:08AM 45.5114 -122.3125 279° West 219 252 3,500 -1,200 Descending Seattle Center
12:09AM 45.5108 -122.3697 269° West 217 250 2,800 -1,020 Descending Seattle Center
12:09AM 45.5150 -122.3964 283° West 215 247 2,500 -840 Descending Seattle Center
12:10AM 45.5353 -122.4461 300° West 169 194 1,900 -780 Descending Seattle Center
12:11AM 45.5572 -122.5017 299° West 147 169 1,100 -840 Descending Seattle Center
12:12AM 45.5794 -122.5575 300° West 152 175 200 -900 Descending Seattle Center